| time (UTC) | temp F | wind direction | speed MPH | gust MPH | rain 1hr in | rain 24hr in | rain mn in | humidity % | barometer mb |
| 20260507101016 | 48 | 293 | 3.0 | 6.0 | 0.05 | 0.06 | 0.06 | 88 | 1008.4 |
| 20260507100516 | 48 | 338 | 3.0 | 7.0 | 0.04 | 0.05 | 0.05 | 88 | 1008.4 |
| 20260507100017 | 48 | 338 | 4.0 | 9.0 | 0.04 | 0.05 | 0.05 | 88 | 1008.2 |
| 20260507095517 | 48 | 338 | 3.0 | 8.0 | 0.04 | 0.05 | 0.05 | 88 | 1008.3 |
| 20260507095016 | 49 | 315 | 4.0 | 10.0 | 0.04 | 0.05 | 0.05 | 87 | 1008.5 |
| 20260507094536 | 49 | 315 | 4.0 | 11.0 | 0.04 | 0.05 | 0.05 | 88 | 1008.4 |
| 20260507094016 | 49 | 315 | 4.0 | 10.0 | 0.04 | 0.05 | 0.05 | 87 | 1008.4 |
| 20260507093516 | 49 | 315 | 6.0 | 11.0 | 0.03 | 0.04 | 0.04 | 87 | 1008.4 |
| 20260507093016 | 49 | 293 | 7.0 | 11.0 | 0.03 | 0.03 | 0.03 | 87 | 1008.3 |
| 20260507092516 | 50 | 293 | 8.0 | 12.0 | 0.02 | 0.02 | 0.02 | 87 | 1008.4 |
| 20260507092016 | 50 | 293 | 10.0 | 13.0 | 0.01 | 0.01 | 0.01 | 86 | 1008.4 |
| 20260507091537 | 50 | 293 | 10.0 | 13.0 | 0.01 | 0.01 | 0.01 | 86 | 1008.5 |
| 20260507091016 | 50 | 293 | 10.0 | 14.0 | 0.01 | 0.01 | 0.01 | 85 | 1008.2 |
| 20260507090516 | 50 | 293 | 10.0 | 14.0 | 0.01 | 0.01 | 0.01 | 86 | 1008.2 |
| 20260507090037 | 50 | 293 | 11.0 | 14.0 | 0.01 | 0.01 | 0.01 | 86 | 1008.2 |
| 20260507085516 | 50 | 293 | 12.0 | 17.0 | 0.01 | 0.01 | 0.01 | 85 | 1008.0 |
| 20260507085015 | 50 | 293 | 10.0 | 15.0 | 0.01 | 0.01 | 0.01 | 86 | 1007.8 |
| 20260507084516 | 50 | 293 | 9.0 | 17.0 | 0.01 | 0.01 | 0.01 | 86 | 1007.8 |
| 20260507084017 | 50 | 293 | 11.0 | 16.0 | 0.01 | 0.01 | 0.01 | 87 | 1007.8 |
| 20260507083515 | 50 | 293 | 11.0 | 15.0 | 0.01 | 0.01 | 0.01 | 87 | 1007.7 |
| 20260507083016 | 51 | 293 | 11.0 | 16.0 | 0.00 | 0.00 | 0.00 | 86 | 1007.6 |
| 20260507082516 | 51 | 293 | 14.0 | 20.0 | 0.00 | 0.00 | 0.00 | 86 | 1007.8 |
| 20260507082017 | 51 | 293 | 15.0 | 20.0 | 0.00 | 0.00 | 0.00 | 86 | 1007.8 |
| 20260507081516 | 51 | 293 | 16.0 | 21.0 | 0.00 | 0.00 | 0.00 | 86 | 1007.9 |
| 20260507081016 | 51 | 293 | 13.0 | 20.0 | 0.00 | 0.00 | 0.00 | 86 | 1007.8 |
| 20260507080516 | 51 | 293 | 12.0 | 18.0 | 0.00 | 0.00 | 0.00 | 85 | 1007.8 |
| 20260507080016 | 51 | 293 | 14.0 | 18.0 | 0.00 | 0.00 | 0.00 | 84 | 1007.7 |
| 20260507075516 | 51 | 293 | 14.0 | 20.0 | 0.00 | 0.00 | 0.00 | 84 | 1007.7 |
| 20260507075036 | 52 | 293 | 14.0 | 18.0 | 0.00 | 0.00 | 0.00 | 84 | 1007.8 |
| 20260507074536 | 52 | 293 | 12.0 | 17.0 | 0.00 | 0.00 | 0.00 | 84 | 1007.4 |
| 20260507074017 | 52 | 293 | 12.0 | 16.0 | 0.00 | 0.00 | 0.00 | 84 | 1007.2 |
| 20260507073516 | 52 | 293 | 11.0 | 15.0 | 0.00 | 0.00 | 0.00 | 84 | 1007.5 |
| 20260507073016 | 52 | 293 | 11.0 | 14.0 | 0.00 | 0.00 | 0.00 | 84 | 1007.4 |
| 20260507072536 | 52 | 293 | 10.0 | 15.0 | 0.00 | 0.00 | 0.00 | 84 | 1007.4 |
| 20260507072016 | 52 | 293 | 10.0 | 15.0 | 0.00 | 0.00 | 0.00 | 83 | 1007.5 |
| 20260507071515 | 53 | 293 | 10.0 | 14.0 | 0.00 | 0.00 | 0.00 | 84 | 1007.4 |
| 20260507071015 | 53 | 270 | 10.0 | 16.0 | 0.00 | 0.00 | 0.00 | 85 | 1007.3 |
| 20260507070556 | 53 | 293 | 9.0 | 16.0 | 0.00 | 0.00 | 0.00 | 86 | 1007.3 |
| 20260507070036 | 53 | 293 | 9.0 | 12.0 | 0.00 | 0.00 | 0.00 | 87 | 1007.4 |
| 20260507065515 | 53 | 270 | 7.0 | 11.0 | 0.00 | 0.00 | 0.00 | 88 | 1007.4 |
| 20260507065016 | 53 | 293 | 8.0 | 12.0 | 0.00 | 0.00 | 0.00 | 88 | 1007.3 |
| 20260507064516 | 53 | 293 | 8.0 | 11.0 | 0.00 | 0.00 | 0.00 | 88 | 1007.1 |
| 20260507064016 | 53 | 293 | 8.0 | 11.0 | 0.00 | 0.00 | 0.00 | 88 | 1007.0 |
| 20260507063516 | 53 | 293 | 7.0 | 12.0 | 0.00 | 0.00 | 0.00 | 89 | 1006.9 |
| 20260507063015 | 53 | 293 | 5.0 | 12.0 | 0.00 | 0.00 | 0.00 | 89 | 1006.8 |
| 20260507062516 | 53 | 315 | 5.0 | 10.0 | 0.00 | 0.00 | 0.00 | 89 | 1007.1 |
| 20260507062036 | 53 | 293 | 7.0 | 11.0 | 0.00 | 0.00 | 0.00 | 89 | 1007.2 |
| 20260507061515 | 53 | 293 | 11.0 | 15.0 | 0.00 | 0.00 | 0.00 | 89 | 1007.4 |
| 20260507061015 | 53 | 293 | 8.0 | 14.0 | 0.00 | 0.00 | 0.00 | 90 | 1007.4 |
| 20260507060516 | 53 | 293 | 6.0 | 10.0 | 0.00 | 0.00 | 0.00 | 90 | 1007.2 |
| 20260507060015 | 52 | 315 | 4.0 | 10.0 | 0.00 | 0.00 | 0.00 | 90 | 1007.4 |
| 20260507055515 | 52 | 293 | 8.0 | 14.0 | 0.00 | 0.00 | 0.00 | 90 | 1007.5 |
| 20260507055016 | 52 | 293 | 7.0 | 12.0 | 0.00 | 0.00 | 0.00 | 90 | 1007.5 |
| 20260507054515 | 53 | 293 | 6.0 | 10.0 | 0.00 | 0.00 | 0.00 | 90 | 1007.5 |
| 20260507054015 | 53 | 315 | 5.0 | 12.0 | 0.00 | 0.00 | 0.00 | 90 | 1007.3 |
| 20260507053515 | 53 | 315 | 5.0 | 10.0 | 0.00 | 0.00 | 0.00 | 90 | 1007.0 |
| 20260507053016 | 53 | 338 | 6.0 | 11.0 | 0.00 | 0.00 | 0.00 | 91 | 1006.9 |
| 20260507052516 | 53 | 315 | 5.0 | 10.0 | 0.00 | 0.00 | 0.00 | 90 | 1007.2 |
| 20260507052015 | 54 | 338 | 5.0 | 11.0 | 0.00 | 0.00 | 0.00 | 90 | 1007.3 |
| 20260507051535 | 55 | 315 | 4.0 | 9.0 | 0.00 | 0.00 | 0.00 | 90 | 1007.2 |
| 20260507051016 | 56 | 315 | 5.0 | 10.0 | 0.00 | 0.00 | 0.00 | 90 | 1007.2 |
| 20260507050515 | 57 | 293 | 7.0 | 14.0 | 0.00 | 0.00 | 0.00 | 92 | 1007.2 |
| 20260507050015 | 57 | 270 | 8.0 | 14.0 | 0.00 | 0.00 | 0.00 | 93 | 1007.0 |
| 20260507045535 | 58 | 270 | 8.0 | 12.0 | 0.00 | 0.00 | 0.00 | 93 | 1006.9 |
| 20260507045016 | 58 | 270 | 8.0 | 13.0 | 0.00 | 0.00 | 0.00 | 94 | 1006.8 |
| 20260507044516 | 58 | 270 | 6.0 | 12.0 | 0.00 | 0.00 | 0.00 | 95 | 1007.0 |
| 20260507044015 | 58 | 248 | 3.0 | 6.0 | 0.00 | 0.00 | 0.00 | 94 | 1007.1 |
| 20260507043516 | 57 | 225 | 2.0 | 7.0 | 0.00 | 0.00 | 0.00 | 94 | 1007.0 |
| 20260507043016 | 57 | 225 | 4.0 | 7.0 | 0.00 | 0.00 | 0.00 | 94 | 1007.1 |
| 20260507042516 | 57 | 203 | 4.0 | 6.0 | 0.00 | 0.00 | 0.00 | 94 | 1006.9 |
| 20260507042016 | 57 | 203 | 6.0 | 9.0 | 0.00 | 0.00 | 0.00 | 94 | 1007.1 |
| 20260507041516 | 57 | 203 | 6.0 | 7.0 | 0.00 | 0.00 | 0.00 | 94 | 1007.1 |
| 20260507041016 | 57 | 203 | 8.0 | 10.0 | 0.00 | 0.00 | 0.00 | 94 | 1007.1 |
| 20260507040516 | 57 | 203 | 7.0 | 10.0 | 0.00 | 0.00 | 0.00 | 94 | 1007.1 |
| 20260507040015 | 57 | 203 | 6.0 | 9.0 | 0.00 | 0.00 | 0.00 | 94 | 1006.9 |
| 20260507035516 | 57 | 203 | 8.0 | 10.0 | 0.00 | 0.00 | 0.00 | 93 | 1007.1 |
| 20260507035037 | 57 | 203 | 8.0 | 10.0 | 0.00 | 0.00 | 0.00 | 93 | 1007.1 |
| 20260507034517 | 57 | 203 | 8.0 | 10.0 | 0.00 | 0.00 | 0.00 | 93 | 1007.2 |
| 20260507034017 | 57 | 203 | 10.0 | 12.0 | 0.00 | 0.00 | 0.00 | 93 | 1007.0 |
| 20260507033516 | 57 | 203 | 9.0 | 12.0 | 0.00 | 0.00 | 0.00 | 93 | 1006.9 |
| 20260507033036 | 57 | 203 | 10.0 | 13.0 | 0.00 | 0.00 | 0.00 | 93 | 1006.8 |
| 20260507032516 | 57 | 203 | 10.0 | 15.0 | 0.00 | 0.00 | 0.00 | 94 | 1006.7 |
| 20260507032016 | 57 | 203 | 10.0 | 12.0 | 0.00 | 0.00 | 0.00 | 94 | 1006.6 |
| 20260507031516 | 57 | 203 | 10.0 | 13.0 | 0.00 | 0.00 | 0.00 | 94 | 1006.5 |
| 20260507031016 | 57 | 203 | 10.0 | 14.0 | 0.00 | 0.00 | 0.00 | 94 | 1006.4 |
| 20260507030536 | 57 | 203 | 11.0 | 15.0 | 0.00 | 0.00 | 0.00 | 94 | 1006.5 |
| 20260507030016 | 57 | 203 | 10.0 | 13.0 | 0.00 | 0.00 | 0.00 | 93 | 1006.6 |
| 20260507025517 | 57 | 203 | 11.0 | 14.0 | 0.00 | 0.00 | 0.00 | 94 | 1006.5 |
| 20260507025036 | 57 | 203 | 10.0 | 14.0 | 0.00 | 0.00 | 0.00 | 93 | 1006.6 |
| 20260507024516 | 57 | 203 | 11.0 | 14.0 | 0.00 | 0.00 | 0.00 | 93 | 1006.7 |
| 20260507024016 | 56 | 203 | 12.0 | 16.0 | 0.00 | 0.00 | 0.00 | 93 | 1006.8 |
| 20260507023537 | 56 | 203 | 12.0 | 16.0 | 0.00 | 0.00 | 0.00 | 93 | 1006.7 |
| 20260507023016 | 56 | 203 | 11.0 | 14.0 | 0.00 | 0.00 | 0.00 | 93 | 1006.8 |
| 20260507022516 | 56 | 203 | 12.0 | 17.0 | 0.00 | 0.00 | 0.00 | 93 | 1006.7 |
| 20260507022016 | 56 | 203 | 12.0 | 17.0 | 0.00 | 0.00 | 0.00 | 93 | 1006.6 |
| 20260507021516 | 56 | 203 | 13.0 | 16.0 | 0.00 | 0.00 | 0.00 | 93 | 1006.9 |
| 20260507021016 | 56 | 203 | 13.0 | 16.0 | 0.00 | 0.00 | 0.00 | 93 | 1006.8 |
| 20260507020517 | 56 | 203 | 13.0 | 18.0 | 0.00 | 0.00 | 0.00 | 93 | 1006.9 |
| 20260507020016 | 56 | 203 | 13.0 | 20.0 | 0.00 | 0.00 | 0.00 | 93 | 1006.9 |
| 20260507015516 | 56 | 203 | 13.0 | 17.0 | 0.00 | 0.00 | 0.00 | 93 | 1007.0 |
| 20260507015016 | 56 | 203 | 14.0 | 17.0 | 0.00 | 0.00 | 0.00 | 93 | 1007.0 |
| 20260507014537 | 56 | 203 | 14.0 | 19.0 | 0.00 | 0.00 | 0.00 | 93 | 1007.0 |
| 20260507014016 | 56 | 203 | 14.0 | 18.0 | 0.00 | 0.00 | 0.00 | 93 | 1007.0 |
| 20260507013516 | 56 | 203 | 14.0 | 22.0 | 0.00 | 0.00 | 0.00 | 93 | 1007.2 |
| 20260507013037 | 57 | 203 | 13.0 | 18.0 | 0.00 | 0.00 | 0.00 | 93 | 1007.2 |
| 20260507012516 | 56 | 203 | 15.0 | 19.0 | 0.00 | 0.00 | 0.00 | 93 | 1007.1 |
| 20260507012016 | 56 | 203 | 15.0 | 19.0 | 0.00 | 0.00 | 0.00 | 93 | 1007.3 |
| 20260507011516 | 56 | 203 | 16.0 | 20.0 | 0.00 | 0.00 | 0.00 | 93 | 1007.2 |
| 20260507011037 | 56 | 203 | 17.0 | 23.0 | 0.00 | 0.00 | 0.00 | 92 | 1007.3 |
| 20260507010516 | 56 | 203 | 17.0 | 23.0 | 0.00 | 0.00 | 0.00 | 92 | 1007.2 |
| 20260507010016 | 57 | 203 | 17.0 | 22.0 | 0.00 | 0.00 | 0.00 | 92 | 1007.2 |
| 20260507005517 | 57 | 203 | 17.0 | 22.0 | 0.00 | 0.00 | 0.00 | 92 | 1007.3 |
| 20260507005016 | 57 | 203 | 16.0 | 21.0 | 0.00 | 0.00 | 0.00 | 92 | 1007.3 |
| 20260507004556 | 57 | 203 | 16.0 | 22.0 | 0.00 | 0.00 | 0.00 | 92 | 1007.2 |
| 20260507004016 | 57 | 203 | 17.0 | 25.0 | 0.00 | 0.00 | 0.00 | 92 | 1007.2 |
| 20260507003536 | 57 | 203 | 18.0 | 25.0 | 0.00 | 0.00 | 0.00 | 92 | 1007.1 |
| 20260507003016 | 57 | 203 | 18.0 | 27.0 | 0.00 | 0.00 | 0.00 | 92 | 1007.1 |
| 20260507002516 | 57 | 203 | 16.0 | 22.0 | 0.00 | 0.00 | 0.00 | 92 | 1007.1 |
| 20260507002017 | 57 | 203 | 18.0 | 22.0 | 0.00 | 0.00 | 0.00 | 92 | 1007.1 |
| 20260507001516 | 57 | 203 | 17.0 | 22.0 | 0.00 | 0.00 | 0.00 | 92 | 1007.2 |
| 20260507001015 | 57 | 203 | 18.0 | 24.0 | 0.00 | 0.00 | 0.00 | 92 | 1007.1 |
| 20260507000516 | 57 | 203 | 17.0 | 23.0 | 0.00 | 0.00 | 0.00 | 92 | 1007.1 |
| 20260507000016 | 57 | 203 | 16.0 | 24.0 | 0.00 | 0.00 | 0.00 | 92 | 1007.2 |
| 20260506235516 | 57 | 203 | 18.0 | 29.0 | 0.00 | 0.00 | 0.00 | 92 | 1007.2 |
| 20260506235016 | 57 | 203 | 17.0 | 22.0 | 0.00 | 0.00 | 0.00 | 92 | 1007.0 |
| 20260506234516 | 57 | 203 | 15.0 | 21.0 | 0.00 | 0.00 | 0.00 | 92 | 1006.9 |
| 20260506234037 | 57 | 203 | 16.0 | 20.0 | 0.00 | 0.00 | 0.00 | 92 | 1007.1 |
| 20260506233516 | 57 | 203 | 18.0 | 24.0 | 0.00 | 0.00 | 0.00 | 92 | 1007.1 |
| 20260506233016 | 57 | 203 | 19.0 | 22.0 | 0.00 | 0.00 | 0.00 | 92 | 1007.2 |
| 20260506232516 | 58 | 203 | 18.0 | 24.0 | 0.00 | 0.00 | 0.00 | 92 | 1007.3 |
| 20260506232016 | 58 | 203 | 19.0 | 26.0 | 0.00 | 0.00 | 0.00 | 92 | 1007.1 |
| 20260506231515 | 58 | 203 | 21.0 | 27.0 | 0.00 | 0.00 | 0.00 | 92 | 1007.3 |
| 20260506231016 | 58 | 203 | 20.0 | 25.0 | 0.00 | 0.00 | 0.00 | 92 | 1007.2 |
| 20260506230537 | 57 | 203 | 19.0 | 25.0 | 0.00 | 0.00 | 0.00 | 92 | 1007.3 |
| 20260506230016 | 57 | 203 | 17.0 | 22.0 | 0.00 | 0.00 | 0.00 | 92 | 1007.3 |
| 20260506225516 | 57 | 203 | 18.0 | 23.0 | 0.00 | 0.00 | 0.00 | 91 | 1007.2 |
| 20260506225016 | 58 | 203 | 17.0 | 23.0 | 0.00 | 0.00 | 0.00 | 91 | 1007.2 |
| 20260506224516 | 58 | 180 | 17.0 | 24.0 | 0.00 | 0.00 | 0.00 | 91 | 1007.1 |
| 20260506224016 | 58 | 203 | 17.0 | 23.0 | 0.00 | 0.00 | 0.00 | 91 | 1007.4 |
| 20260506223516 | 58 | 203 | 18.0 | 24.0 | 0.00 | 0.00 | 0.00 | 91 | 1007.4 |
| 20260506223015 | 58 | 203 | 19.0 | 25.0 | 0.00 | 0.00 | 0.00 | 91 | 1007.6 |
| 20260506222516 | 59 | 203 | 20.0 | 28.0 | 0.00 | 0.00 | 0.00 | 91 | 1007.5 |
| 20260506222015 | 59 | 203 | 18.0 | 28.0 | 0.00 | 0.00 | 0.00 | 90 | 1007.6 |
| 20260506221515 | 59 | 203 | 18.0 | 24.0 | 0.00 | 0.00 | 0.00 | 90 | 1007.7 |
| 20260506221035 | 59 | 203 | 20.0 | 28.0 | 0.00 | 0.00 | 0.00 | 90 | 1007.8 |
| 20260506220516 | 59 | 203 | 19.0 | 25.0 | 0.00 | 0.00 | 0.00 | 89 | 1007.8 |
| 20260506220015 | 59 | 203 | 19.0 | 27.0 | 0.00 | 0.00 | 0.00 | 89 | 1007.8 |
| 20260506215515 | 59 | 203 | 20.0 | 26.0 | 0.00 | 0.00 | 0.00 | 89 | 1007.9 |
| 20260506215015 | 59 | 203 | 20.0 | 28.0 | 0.00 | 0.00 | 0.00 | 89 | 1007.8 |
| 20260506214536 | 59 | 203 | 18.0 | 25.0 | 0.00 | 0.00 | 0.00 | 89 | 1008.0 |
| 20260506214016 | 59 | 203 | 20.0 | 26.0 | 0.00 | 0.00 | 0.00 | 89 | 1007.9 |
| 20260506213515 | 59 | 203 | 20.0 | 26.0 | 0.00 | 0.00 | 0.00 | 89 | 1007.9 |
| 20260506213016 | 59 | 203 | 20.0 | 25.0 | 0.00 | 0.00 | 0.00 | 88 | 1008.0 |
| 20260506212516 | 59 | 203 | 21.0 | 27.0 | 0.00 | 0.00 | 0.00 | 88 | 1008.0 |
| 20260506212015 | 59 | 203 | 20.0 | 25.0 | 0.00 | 0.00 | 0.00 | 87 | 1008.1 |
| 20260506211515 | 60 | 203 | 18.0 | 23.0 | 0.00 | 0.00 | 0.00 | 86 | 1008.2 |
| 20260506211015 | 60 | 203 | 19.0 | 26.0 | 0.00 | 0.00 | 0.00 | 86 | 1008.2 |
| 20260506210516 | 60 | 203 | 19.0 | 26.0 | 0.00 | 0.00 | 0.00 | 85 | 1008.3 |
| 20260506210015 | 61 | 203 | 20.0 | 26.0 | 0.00 | 0.00 | 0.00 | 84 | 1008.1 |
| 20260506205515 | 61 | 203 | 20.0 | 24.0 | 0.00 | 0.00 | 0.00 | 83 | 1008.2 |
| 20260506205015 | 61 | 203 | 20.0 | 28.0 | 0.00 | 0.00 | 0.00 | 83 | 1008.4 |
| 20260506204536 | 61 | 203 | 19.0 | 29.0 | 0.00 | 0.00 | 0.00 | 83 | 1008.4 |
| 20260506204015 | 61 | 203 | 18.0 | 25.0 | 0.00 | 0.00 | 0.00 | 83 | 1008.4 |
| 20260506203515 | 61 | 203 | 18.0 | 25.0 | 0.00 | 0.00 | 0.00 | 83 | 1008.4 |
| 20260506203015 | 61 | 203 | 18.0 | 26.0 | 0.00 | 0.00 | 0.00 | 83 | 1008.3 |
| 20260506202516 | 61 | 203 | 18.0 | 22.0 | 0.00 | 0.00 | 0.00 | 83 | 1007.9 |
| 20260506202015 | 61 | 203 | 17.0 | 23.0 | 0.00 | 0.00 | 0.00 | 83 | 1007.9 |
| 20260506201516 | 61 | 203 | 19.0 | 25.0 | 0.00 | 0.00 | 0.00 | 82 | 1008.0 |
| 20260506201015 | 61 | 203 | 20.0 | 28.0 | 0.00 | 0.00 | 0.00 | 82 | 1008.0 |
| 20260506200515 | 61 | 203 | 20.0 | 27.0 | 0.00 | 0.00 | 0.00 | 81 | 1008.2 |
| 20260506200015 | 61 | 203 | 20.0 | 27.0 | 0.00 | 0.00 | 0.00 | 81 | 1008.3 |
| 20260506195515 | 61 | 203 | 20.0 | 28.0 | 0.00 | 0.00 | 0.00 | 81 | 1008.4 |
| 20260506195015 | 62 | 203 | 21.0 | 27.0 | 0.00 | 0.00 | 0.00 | 80 | 1008.6 |
| 20260506194515 | 62 | 203 | 19.0 | 24.0 | 0.00 | 0.00 | 0.00 | 79 | 1008.6 |
| 20260506194035 | 62 | 203 | 21.0 | 27.0 | 0.00 | 0.00 | 0.00 | 78 | 1008.7 |
| 20260506193515 | 62 | 203 | 20.0 | 27.0 | 0.00 | 0.00 | 0.00 | 78 | 1008.6 |
| 20260506193036 | 63 | 203 | 19.0 | 24.0 | 0.00 | 0.00 | 0.00 | 77 | 1008.5 |
| 20260506192515 | 63 | 203 | 20.0 | 27.0 | 0.00 | 0.00 | 0.00 | 77 | 1008.5 |
| 20260506192015 | 63 | 203 | 19.0 | 26.0 | 0.00 | 0.00 | 0.00 | 76 | 1008.5 |
| 20260506191536 | 63 | 203 | 20.0 | 27.0 | 0.00 | 0.00 | 0.00 | 76 | 1008.5 |
| 20260506191015 | 63 | 203 | 22.0 | 29.0 | 0.00 | 0.00 | 0.00 | 76 | 1008.4 |
| 20260506190515 | 63 | 203 | 21.0 | 28.0 | 0.00 | 0.00 | 0.00 | 76 | 1008.5 |
| 20260506190015 | 63 | 203 | 21.0 | 27.0 | 0.00 | 0.00 | 0.00 | 76 | 1008.5 |
| 20260506185515 | 63 | 203 | 20.0 | 25.0 | 0.00 | 0.00 | 0.00 | 76 | 1008.5 |
| 20260506185015 | 63 | 203 | 21.0 | 29.0 | 0.00 | 0.00 | 0.00 | 76 | 1008.4 |
| 20260506184515 | 63 | 203 | 19.0 | 25.0 | 0.00 | 0.00 | 0.00 | 76 | 1008.5 |
| 20260506184036 | 63 | 203 | 19.0 | 25.0 | 0.00 | 0.00 | 0.00 | 75 | 1008.5 |
| 20260506183515 | 64 | 203 | 18.0 | 25.0 | 0.00 | 0.00 | 0.00 | 75 | 1008.4 |
| 20260506183015 | 64 | 203 | 19.0 | 30.0 | 0.00 | 0.00 | 0.00 | 74 | 1008.4 |
| 20260506182515 | 64 | 203 | 18.0 | 25.0 | 0.00 | 0.00 | 0.00 | 74 | 1008.6 |
| 20260506182016 | 64 | 203 | 22.0 | 30.0 | 0.00 | 0.00 | 0.00 | 74 | 1008.7 |
| 20260506181515 | 64 | 203 | 21.0 | 31.0 | 0.00 | 0.00 | 0.00 | 74 | 1008.8 |
| 20260506181015 | 65 | 203 | 21.0 | 28.0 | 0.00 | 0.00 | 0.00 | 73 | 1008.7 |
| 20260506180515 | 65 | 203 | 19.0 | 25.0 | 0.00 | 0.00 | 0.00 | 73 | 1009.1 |
| 20260506180016 | 65 | 203 | 22.0 | 28.0 | 0.00 | 0.00 | 0.00 | 72 | 1009.1 |
| 20260506175535 | 66 | 203 | 21.0 | 29.0 | 0.00 | 0.00 | 0.00 | 72 | 1009.1 |
| 20260506175015 | 66 | 203 | 23.0 | 28.0 | 0.00 | 0.00 | 0.00 | 72 | 1008.9 |
| 20260506174536 | 66 | 203 | 23.0 | 29.0 | 0.00 | 0.00 | 0.00 | 71 | 1009.0 |
| 20260506174015 | 67 | 203 | 23.0 | 29.0 | 0.00 | 0.00 | 0.00 | 71 | 1009.1 |
| 20260506173537 | 66 | 203 | 21.0 | 26.0 | 0.00 | 0.00 | 0.00 | 72 | 1009.1 |
| 20260506173017 | 66 | 203 | 20.0 | 29.0 | 0.00 | 0.00 | 0.00 | 73 | 1009.1 |
| 20260506172517 | 65 | 203 | 21.0 | 30.0 | 0.00 | 0.00 | 0.00 | 74 | 1009.1 |
| 20260506172017 | 64 | 180 | 17.0 | 23.0 | 0.00 | 0.00 | 0.00 | 74 | 1009.1 |
| 20260506171517 | 64 | 180 | 17.0 | 24.0 | 0.00 | 0.00 | 0.00 | 74 | 1009.2 |
| 20260506171058 | 64 | 180 | 17.0 | 21.0 | 0.00 | 0.00 | 0.00 | 74 | 1009.2 |
| 20260506170517 | 64 | 180 | 16.0 | 21.0 | 0.00 | 0.00 | 0.00 | 74 | 1009.3 |
| 20260506170017 | 64 | 180 | 18.0 | 23.0 | 0.00 | 0.00 | 0.00 | 74 | 1009.3 |
| 20260506165517 | 65 | 180 | 18.0 | 24.0 | 0.00 | 0.00 | 0.00 | 73 | 1009.3 |
| 20260506165018 | 65 | 180 | 17.0 | 23.0 | 0.00 | 0.00 | 0.00 | 73 | 1009.3 |
| 20260506164517 | 65 | 180 | 18.0 | 28.0 | 0.00 | 0.00 | 0.00 | 73 | 1009.3 |
| 20260506164017 | 65 | 180 | 19.0 | 25.0 | 0.00 | 0.00 | 0.00 | 74 | 1009.4 |
| 20260506163517 | 64 | 180 | 18.0 | 27.0 | 0.00 | 0.00 | 0.00 | 74 | 1009.6 |
| 20260506163017 | 64 | 180 | 16.0 | 21.0 | 0.00 | 0.00 | 0.00 | 74 | 1009.5 |
| 20260506162517 | 64 | 180 | 18.0 | 24.0 | 0.00 | 0.00 | 0.00 | 74 | 1009.7 |
| 20260506162017 | 65 | 180 | 18.0 | 25.0 | 0.00 | 0.00 | 0.00 | 73 | 1009.8 |
| 20260506161537 | 65 | 180 | 16.0 | 23.0 | 0.00 | 0.00 | 0.00 | 73 | 1009.8 |
| 20260506161018 | 65 | 180 | 17.0 | 22.0 | 0.00 | 0.00 | 0.00 | 72 | 1010.1 |
| 20260506160517 | 65 | 180 | 18.0 | 26.0 | 0.00 | 0.00 | 0.00 | 71 | 1010.2 |
| 20260506160017 | 66 | 180 | 16.0 | 22.0 | 0.00 | 0.00 | 0.00 | 71 | 1010.2 |
| 20260506155517 | 67 | 180 | 18.0 | 24.0 | 0.00 | 0.00 | 0.00 | 70 | 1010.3 |
| 20260506155017 | 67 | 180 | 19.0 | 25.0 | 0.00 | 0.00 | 0.00 | 69 | 1010.4 |
| 20260506154516 | 68 | 180 | 18.0 | 22.0 | 0.00 | 0.00 | 0.00 | 69 | 1010.4 |
| 20260506154017 | 68 | 203 | 19.0 | 32.0 | 0.00 | 0.00 | 0.00 | 70 | 1010.6 |
| 20260506153517 | 68 | 203 | 21.0 | 27.0 | 0.00 | 0.00 | 0.00 | 70 | 1010.5 |
| 20260506153038 | 68 | 203 | 22.0 | 27.0 | 0.00 | 0.00 | 0.00 | 70 | 1010.6 |
| 20260506152517 | 68 | 203 | 20.0 | 29.0 | 0.00 | 0.00 | 0.00 | 71 | 1010.6 |
| 20260506152016 | 67 | 203 | 20.0 | 25.0 | 0.00 | 0.00 | 0.00 | 72 | 1010.7 |
| 20260506151517 | 67 | 203 | 21.0 | 26.0 | 0.00 | 0.00 | 0.00 | 72 | 1010.8 |
| 20260506151016 | 67 | 203 | 22.0 | 29.0 | 0.00 | 0.00 | 0.00 | 72 | 1010.8 |
| 20260506150537 | 67 | 203 | 21.0 | 30.0 | 0.00 | 0.00 | 0.00 | 72 | 1010.7 |
| 20260506150017 | 67 | 203 | 20.0 | 26.0 | 0.00 | 0.00 | 0.00 | 73 | 1010.6 |
| 20260506145518 | 66 | 203 | 21.0 | 30.0 | 0.00 | 0.00 | 0.00 | 73 | 1010.5 |
| 20260506145016 | 66 | 203 | 19.0 | 33.0 | 0.00 | 0.00 | 0.00 | 73 | 1010.6 |
| 20260506144516 | 66 | 180 | 17.0 | 24.0 | 0.00 | 0.00 | 0.00 | 73 | 1010.5 |
| 20260506144017 | 66 | 203 | 17.0 | 26.0 | 0.00 | 0.00 | 0.00 | 74 | 1010.5 |
| 20260506143517 | 66 | 203 | 20.0 | 28.0 | 0.00 | 0.00 | 0.00 | 74 | 1010.3 |
| 20260506143017 | 66 | 203 | 18.0 | 28.0 | 0.00 | 0.00 | 0.00 | 74 | 1010.4 |
| 20260506142517 | 65 | 203 | 19.0 | 25.0 | 0.00 | 0.00 | 0.00 | 75 | 1010.4 |
| 20260506142016 | 65 | 180 | 18.0 | 23.0 | 0.00 | 0.00 | 0.00 | 76 | 1010.5 |
| 20260506141517 | 64 | 203 | 18.0 | 26.0 | 0.00 | 0.00 | 0.00 | 78 | 1010.5 |
| 20260506141016 | 63 | 203 | 20.0 | 27.0 | 0.00 | 0.00 | 0.00 | 78 | 1010.6 |
| 20260506140516 | 63 | 203 | 21.0 | 31.0 | 0.00 | 0.00 | 0.00 | 78 | 1010.7 |
| 20260506140017 | 63 | 203 | 19.0 | 31.0 | 0.00 | 0.00 | 0.00 | 79 | 1010.7 |
| 20260506135517 | 63 | 203 | 18.0 | 25.0 | 0.00 | 0.00 | 0.00 | 79 | 1010.9 |
| 20260506135016 | 63 | 203 | 20.0 | 31.0 | 0.00 | 0.00 | 0.00 | 79 | 1011.0 |
| 20260506134516 | 63 | 203 | 20.0 | 28.0 | 0.00 | 0.00 | 0.00 | 79 | 1011.1 |
| 20260506134037 | 63 | 203 | 21.0 | 30.0 | 0.00 | 0.00 | 0.00 | 79 | 1011.1 |
| 20260506133517 | 63 | 203 | 19.0 | 26.0 | 0.00 | 0.00 | 0.00 | 80 | 1011.1 |
| 20260506133037 | 63 | 203 | 20.0 | 27.0 | 0.00 | 0.00 | 0.00 | 80 | 1010.9 |
| 20260506132517 | 63 | 203 | 22.0 | 28.0 | 0.00 | 0.00 | 0.00 | 80 | 1011.0 |
| 20260506132017 | 63 | 203 | 21.0 | 30.0 | 0.00 | 0.00 | 0.00 | 80 | 1010.9 |
| 20260506131537 | 62 | 203 | 21.0 | 28.0 | 0.00 | 0.00 | 0.00 | 80 | 1010.9 |
| 20260506131016 | 62 | 203 | 19.0 | 25.0 | 0.00 | 0.00 | 0.00 | 81 | 1011.0 |
| 20260506130516 | 62 | 203 | 18.0 | 23.0 | 0.00 | 0.00 | 0.00 | 82 | 1011.1 |
| 20260506130037 | 61 | 203 | 18.0 | 25.0 | 0.00 | 0.00 | 0.00 | 84 | 1011.1 |
| 20260506125516 | 60 | 203 | 18.0 | 25.0 | 0.00 | 0.00 | 0.00 | 85 | 1011.2 |
| 20260506125016 | 60 | 203 | 18.0 | 24.0 | 0.00 | 0.00 | 0.00 | 84 | 1011.2 |
| 20260506124537 | 60 | 203 | 19.0 | 26.0 | 0.00 | 0.00 | 0.00 | 84 | 1011.2 |
| 20260506124017 | 60 | 203 | 19.0 | 25.0 | 0.00 | 0.00 | 0.00 | 85 | 1011.2 |
| 20260506123516 | 60 | 203 | 18.0 | 22.0 | 0.00 | 0.00 | 0.00 | 84 | 1011.0 |
| 20260506123017 | 60 | 203 | 19.0 | 24.0 | 0.00 | 0.00 | 0.00 | 85 | 1010.9 |
| 20260506122516 | 59 | 203 | 18.0 | 26.0 | 0.00 | 0.00 | 0.00 | 85 | 1010.9 |
| 20260506122016 | 59 | 203 | 20.0 | 27.0 | 0.00 | 0.00 | 0.00 | 85 | 1011.0 |
| 20260506121516 | 59 | 203 | 18.0 | 24.0 | 0.00 | 0.00 | 0.00 | 86 | 1011.1 |
| 20260506121017 | 59 | 203 | 18.0 | 25.0 | 0.00 | 0.00 | 0.00 | 86 | 1011.1 |
| 20260506120517 | 59 | 203 | 18.0 | 26.0 | 0.00 | 0.00 | 0.00 | 86 | 1011.1 |
| 20260506120037 | 59 | 203 | 17.0 | 23.0 | 0.00 | 0.00 | 0.00 | 86 | 1011.4 |
| 20260506115516 | 59 | 203 | 20.0 | 27.0 | 0.00 | 0.00 | 0.00 | 86 | 1011.6 |
| 20260506115016 | 58 | 203 | 21.0 | 25.0 | 0.00 | 0.00 | 0.00 | 87 | 1011.5 |
| 20260506114516 | 58 | 203 | 20.0 | 24.0 | 0.00 | 0.00 | 0.00 | 87 | 1011.5 |
| 20260506114036 | 58 | 203 | 19.0 | 27.0 | 0.00 | 0.00 | 0.00 | 87 | 1011.4 |
| 20260506113516 | 58 | 203 | 20.0 | 25.0 | 0.00 | 0.00 | 0.00 | 87 | 1011.3 |
| 20260506113037 | 58 | 203 | 18.0 | 25.0 | 0.00 | 0.00 | 0.00 | 87 | 1011.3 |
| 20260506112557 | 58 | 203 | 17.0 | 24.0 | 0.00 | 0.00 | 0.00 | 87 | 1011.4 |
| 20260506112016 | 58 | 203 | 18.0 | 27.0 | 0.00 | 0.00 | 0.00 | 87 | 1011.4 |
| 20260506111517 | 57 | 203 | 18.0 | 24.0 | 0.00 | 0.00 | 0.00 | 87 | 1011.5 |
| 20260506111017 | 57 | 203 | 17.0 | 22.0 | 0.00 | 0.00 | 0.00 | 87 | 1011.5 |
| 20260506110516 | 58 | 203 | 16.0 | 20.0 | 0.00 | 0.00 | 0.00 | 87 | 1011.5 |
| 20260506110016 | 58 | 203 | 18.0 | 23.0 | 0.00 | 0.00 | 0.00 | 87 | 1011.4 |
| 20260506105517 | 58 | 203 | 17.0 | 22.0 | 0.00 | 0.00 | 0.00 | 87 | 1011.5 |
| 20260506105016 | 58 | 203 | 17.0 | 21.0 | 0.00 | 0.00 | 0.00 | 87 | 1011.5 |
| 20260506104516 | 58 | 203 | 17.0 | 22.0 | 0.00 | 0.00 | 0.00 | 86 | 1011.6 |
| 20260506104016 | 58 | 203 | 17.0 | 24.0 | 0.00 | 0.00 | 0.00 | 86 | 1011.7 |
| 20260506103517 | 58 | 203 | 17.0 | 23.0 | 0.00 | 0.00 | 0.00 | 86 | 1011.6 |
| 20260506103016 | 58 | 203 | 16.0 | 22.0 | 0.00 | 0.00 | 0.00 | 86 | 1011.5 |
| 20260506102516 | 58 | 203 | 16.0 | 21.0 | 0.00 | 0.00 | 0.00 | 86 | 1011.6 |
| 20260506102017 | 58 | 203 | 15.0 | 22.0 | 0.00 | 0.00 | 0.00 | 87 | 1011.4 |
| 20260506101517 | 58 | 203 | 15.0 | 21.0 | 0.00 | 0.00 | 0.00 | 87 | 1011.3 |